createdAt,value
2017-09-08T00:04:36.594Z,20.43
2017-09-08T00:09:39.815Z,18.20
2017-09-08T00:14:42.994Z,24.67
2017-09-08T00:19:46.200Z,30.47
2017-09-08T00:24:49.421Z,33.42
2017-09-08T00:29:52.641Z,23.10
2017-09-08T00:34:55.846Z,26.37
2017-09-08T00:39:59.763Z,35.13
2017-09-08T00:45:02.957Z,26.10
2017-09-08T00:50:06.153Z,22.60
2017-09-08T00:55:09.359Z,30.90
2017-09-08T01:00:12.635Z,29.73
2017-09-08T01:05:15.857Z,24.90
2017-09-08T01:10:19.139Z,17.93
2017-09-08T01:15:22.312Z,33.27
2017-09-08T01:20:25.585Z,19.70
2017-09-08T01:25:28.768Z,30.67
2017-09-08T01:30:31.987Z,18.80
2017-09-08T01:35:35.231Z,28.20
2017-09-08T01:40:38.441Z,18.63
2017-09-08T01:45:41.640Z,25.43
2017-09-08T01:50:45.033Z,19.27
2017-09-08T01:55:48.260Z,42.10
2017-09-08T02:00:51.461Z,37.90
2017-09-08T02:05:54.896Z,22.90
2017-09-08T02:10:58.874Z,24.90
2017-09-08T02:16:02.098Z,29.97
2017-09-08T02:21:05.313Z,23.90
2017-09-08T02:26:08.525Z,21.53
2017-09-08T02:31:11.738Z,29.57
2017-09-08T02:36:14.948Z,25.85
2017-09-08T02:41:18.177Z,33.43
2017-09-08T02:46:21.400Z,24.10
2017-09-08T02:51:24.617Z,16.73
2017-09-08T02:56:27.893Z,26.37
2017-09-08T03:01:31.112Z,19.87
2017-09-08T03:06:34.333Z,21.30
2017-09-08T03:11:37.535Z,26.53
2017-09-08T03:16:40.734Z,23.90
2017-09-08T03:21:43.919Z,18.57
2017-09-08T03:26:47.141Z,17.60
2017-09-08T03:31:50.350Z,10.87
2017-09-08T03:36:53.572Z,23.57
2017-09-08T03:41:56.750Z,26.60
2017-09-08T03:46:59.960Z,15.10
2017-09-08T03:52:03.176Z,22.60
2017-09-08T03:57:06.409Z,14.90
2017-09-08T04:02:09.597Z,18.50
2017-09-08T04:07:12.806Z,17.03
2017-09-08T04:12:16.114Z,27.00
2017-09-08T04:17:19.341Z,17.33
2017-09-08T04:22:22.564Z,17.47
2017-09-08T04:27:25.756Z,19.33
2017-09-08T04:32:28.962Z,20.87
2017-09-08T04:37:32.179Z,20.50
2017-09-08T04:42:35.382Z,19.10
2017-09-08T04:47:38.586Z,15.50
2017-09-08T04:52:41.798Z,22.17
2017-09-08T04:57:45.008Z,18.03
2017-09-08T05:02:48.223Z,18.17
2017-09-08T05:07:51.425Z,23.25
2017-09-08T05:12:54.714Z,21.10
2017-09-08T05:17:57.936Z,30.90
2017-09-08T05:23:01.408Z,16.53
2017-09-08T05:28:04.626Z,17.03
2017-09-08T05:33:07.828Z,20.43
2017-09-08T05:38:11.026Z,27.80
2017-09-08T05:43:14.213Z,19.63
2017-09-08T05:48:17.413Z,19.80
2017-09-08T05:53:20.621Z,17.83
2017-09-08T05:58:23.916Z,14.40
2017-09-08T06:03:27.125Z,21.43
2017-09-08T06:08:30.313Z,28.60
2017-09-08T06:13:34.343Z,19.02
2017-09-08T06:18:37.553Z,25.93
2017-09-08T06:23:40.801Z,17.47
2017-09-08T06:28:44.765Z,10.17
2017-09-08T06:33:47.991Z,21.57
2017-09-08T06:38:51.178Z,17.43
2017-09-08T06:43:54.342Z,18.40
2017-09-08T06:48:57.559Z,18.03
2017-09-08T06:54:00.785Z,13.50
2017-09-08T06:59:04.004Z,22.37
2017-09-08T07:04:07.221Z,17.60
2017-09-08T07:09:10.430Z,20.70
2017-09-08T07:14:13.639Z,14.53
2017-09-08T07:19:16.848Z,21.23
2017-09-08T07:24:20.071Z,12.00
2017-09-08T07:29:23.425Z,17.90
2017-09-08T07:34:26.637Z,15.57
2017-09-08T07:39:29.841Z,16.63
2017-09-08T07:44:33.082Z,23.47
2017-09-08T07:49:36.307Z,14.33
2017-09-08T07:54:39.518Z,15.97
2017-09-08T07:59:42.737Z,16.00
2017-09-08T08:04:45.929Z,15.90
2017-09-08T08:09:49.175Z,17.80
2017-09-08T08:14:52.385Z,20.03
2017-09-08T08:19:55.616Z,16.50
2017-09-08T08:24:58.851Z,13.93
2017-09-08T08:30:02.048Z,18.00
2017-09-08T08:35:05.392Z,12.40
2017-09-08T08:40:08.618Z,20.63
2017-09-08T08:45:11.885Z,17.43
2017-09-08T08:50:15.096Z,16.63
2017-09-08T08:55:18.488Z,19.90
2017-09-08T09:00:21.695Z,19.07
2017-09-08T09:05:24.908Z,16.93
2017-09-08T09:10:28.085Z,20.27
2017-09-08T09:15:31.273Z,18.77
2017-09-08T09:20:34.490Z,22.60
2017-09-08T09:25:37.697Z,21.55
2017-09-08T09:30:40.937Z,15.60
2017-09-08T09:35:44.182Z,10.23
2017-09-08T09:40:47.388Z,20.27
2017-09-08T09:45:50.585Z,21.53
2017-09-08T09:50:53.781Z,20.10
2017-09-08T09:55:56.994Z,21.43
2017-09-08T10:01:00.197Z,14.83
2017-09-08T10:06:03.436Z,21.93
2017-09-08T10:11:06.616Z,19.20
2017-09-08T10:16:09.806Z,25.67
2017-09-08T10:21:13.029Z,15.63
2017-09-08T10:26:16.240Z,18.93
2017-09-08T10:31:19.594Z,20.27
2017-09-08T10:36:22.804Z,21.03
2017-09-08T10:41:26.016Z,14.43
2017-09-08T10:46:29.313Z,17.83
2017-09-08T10:51:32.517Z,18.40
2017-09-08T10:56:35.735Z,12.33
2017-09-08T11:01:39.097Z,23.10
2017-09-08T11:06:43.163Z,16.93
2017-09-08T11:11:46.378Z,13.33
2017-09-08T11:16:49.612Z,20.88
2017-09-08T11:21:52.856Z,20.93
2017-09-08T11:26:56.032Z,14.48
2017-09-08T11:31:59.257Z,20.23
2017-09-08T11:37:08.075Z,16.70
2017-09-08T11:42:11.282Z,12.27
2017-09-08T11:47:14.516Z,17.37
2017-09-08T11:52:17.773Z,17.53
2017-09-08T11:57:21.020Z,11.60
2017-09-08T12:02:24.223Z,7.10
2017-09-08T12:07:27.504Z,14.13
2017-09-08T12:12:30.781Z,14.53
2017-09-08T12:17:33.979Z,12.20
2017-09-08T12:22:37.184Z,9.50
2017-09-08T12:27:40.380Z,16.70
2017-09-08T12:32:43.607Z,16.77
2017-09-08T12:37:46.818Z,19.87
2017-09-08T12:42:50.072Z,10.23
2017-09-08T12:47:53.339Z,9.27
2017-09-08T12:52:56.534Z,16.70
2017-09-08T12:57:59.849Z,9.60
2017-09-08T13:03:03.055Z,14.33
2017-09-08T13:08:06.290Z,9.67
2017-09-08T13:13:09.570Z,18.07
2017-09-08T13:18:13.593Z,10.40
2017-09-08T13:23:16.774Z,10.07
2017-09-08T13:28:19.962Z,9.60
2017-09-08T13:33:23.168Z,7.83
2017-09-08T13:38:26.386Z,10.43
2017-09-08T13:43:29.572Z,7.27
2017-09-08T13:48:32.877Z,15.23
2017-09-08T13:53:36.104Z,7.70
2017-09-08T13:58:39.326Z,6.90
2017-09-08T14:03:42.525Z,6.97
2017-09-08T14:08:45.749Z,9.90
2017-09-08T14:13:49.105Z,9.90
2017-09-08T14:18:52.308Z,7.18
2017-09-08T14:23:55.594Z,10.10
2017-09-08T14:28:58.781Z,5.40
2017-09-08T14:34:01.969Z,4.10
2017-09-08T14:39:05.181Z,8.13
2017-09-08T14:44:08.373Z,7.00
2017-09-08T14:49:11.582Z,9.30
2017-09-08T14:54:14.866Z,8.30
2017-09-08T14:59:18.105Z,8.70
2017-09-08T15:04:21.327Z,6.20
2017-09-08T15:09:24.524Z,7.07
2017-09-08T15:14:27.732Z,4.90
2017-09-08T15:19:30.963Z,6.80
2017-09-08T15:24:34.184Z,8.57
2017-09-08T15:29:37.485Z,7.60
2017-09-08T15:34:40.675Z,5.07
2017-09-08T15:39:43.887Z,10.70
2017-09-08T15:44:47.086Z,8.77
2017-09-08T15:49:50.297Z,6.07
2017-09-08T15:54:53.570Z,5.00
2017-09-08T15:59:56.768Z,7.93
2017-09-08T16:04:59.971Z,5.40
2017-09-08T16:10:03.174Z,7.70
2017-09-08T16:15:06.385Z,10.47
2017-09-08T16:20:09.603Z,9.80
2017-09-08T16:25:12.839Z,6.20
2017-09-08T16:30:16.042Z,6.97
2017-09-08T16:35:19.261Z,11.65
2017-09-08T16:40:22.440Z,9.50
2017-09-08T16:45:25.643Z,12.50
2017-09-08T16:50:28.849Z,14.07
2017-09-08T16:55:32.114Z,5.33
2017-09-08T17:00:35.314Z,6.07
2017-09-08T17:05:39.445Z,6.17
2017-09-08T17:10:42.668Z,11.70
2017-09-08T17:15:45.876Z,6.90
2017-09-08T17:20:49.092Z,8.80
2017-09-08T17:25:52.348Z,8.47
2017-09-08T17:30:55.592Z,13.63
2017-09-08T17:35:58.790Z,8.07
2017-09-08T17:41:02.010Z,10.47
2017-09-08T17:46:05.274Z,16.10
2017-09-08T17:51:08.468Z,14.33
2017-09-08T17:56:11.915Z,40.47
2017-09-08T18:01:15.892Z,11.63
2017-09-08T18:06:19.208Z,7.47
2017-09-08T18:11:22.456Z,7.40
2017-09-08T18:16:25.709Z,13.33
2017-09-08T18:21:28.892Z,13.70
2017-09-08T18:26:32.069Z,13.20
2017-09-08T18:31:35.424Z,10.37
2017-09-08T18:36:38.638Z,14.30
2017-09-08T18:41:41.870Z,6.60
2017-09-08T18:46:45.128Z,8.50
2017-09-08T18:51:48.758Z,9.10
2017-09-08T18:56:51.903Z,9.00
2017-09-08T19:01:55.251Z,8.20
2017-09-08T19:06:58.492Z,6.90
2017-09-08T19:12:01.751Z,11.90
2017-09-08T19:17:05.071Z,8.50
2017-09-08T19:22:08.233Z,12.40
2017-09-08T19:27:11.628Z,7.70
2017-09-08T19:32:15.034Z,6.30
2017-09-08T19:37:18.650Z,10.23
2017-09-08T19:42:21.848Z,9.37
2017-09-08T19:47:25.164Z,7.23
2017-09-08T19:52:28.484Z,6.53
2017-09-08T19:57:31.797Z,9.50
2017-09-08T20:02:35.096Z,13.40
2017-09-08T20:07:38.328Z,9.57
2017-09-08T20:12:41.534Z,13.37
2017-09-08T20:17:44.777Z,11.63
2017-09-08T20:22:48.149Z,5.47
2017-09-08T20:27:51.330Z,13.77
2017-09-08T20:32:54.520Z,8.30
2017-09-08T20:37:57.957Z,11.33
2017-09-08T20:43:01.160Z,11.57
2017-09-08T20:48:04.384Z,16.47
2017-09-08T20:53:07.607Z,14.03
2017-09-08T20:58:10.789Z,12.20
2017-09-08T21:03:14.021Z,10.37
2017-09-08T21:08:17.328Z,8.97
2017-09-08T21:13:20.509Z,9.00
2017-09-08T21:18:23.815Z,9.67
2017-09-08T21:23:26.983Z,10.60
2017-09-08T21:28:30.170Z,10.33
2017-09-08T21:33:33.387Z,8.93
2017-09-08T21:38:37.487Z,7.00
2017-09-08T21:43:40.671Z,8.60
2017-09-08T21:48:43.863Z,8.10
2017-09-08T21:53:47.058Z,7.17
2017-09-08T21:58:50.271Z,5.67
2017-09-08T22:03:53.508Z,8.57
2017-09-08T22:08:56.761Z,8.83
2017-09-08T22:14:00.057Z,7.70
2017-09-08T22:19:03.275Z,6.67
2017-09-08T22:24:06.519Z,12.23
2017-09-08T22:29:09.730Z,8.90
2017-09-08T22:34:12.929Z,9.63
2017-09-08T22:39:16.126Z,8.83
2017-09-08T22:44:19.352Z,19.43
2017-09-08T22:49:22.575Z,9.47
2017-09-08T22:54:31.803Z,11.83
2017-09-08T22:59:35.024Z,15.27
2017-09-08T23:04:38.249Z,8.55
2017-09-08T23:09:41.466Z,7.00
2017-09-08T23:14:44.609Z,7.43
2017-09-08T23:19:47.805Z,9.70
2017-09-08T23:24:51.071Z,7.83
2017-09-08T23:29:54.270Z,14.07
2017-09-08T23:34:57.473Z,13.27
2017-09-08T23:40:00.681Z,8.93
2017-09-08T23:45:03.899Z,7.93
2017-09-08T23:50:07.060Z,8.60
2017-09-08T23:55:10.253Z,6.15
